Terminal Aerodrome Forecast
Issued by NWS

Home | Current Version | Previous Version | Text Only | Print | Product List | Glossary On
Versions: 1 2 3 4 5 6 7 8 9 10 11 12 13 14 15 16 17 18 19 20 21 22 23
000
FTUS44 KLZK 191740
TAFLIT
TAF
KLIT 191740Z 1918/2018 13007KT P6SM SCT030 BKN250
     FM200000 12006KT P6SM OVC250
     FM200600 12003KT 5SM BR OVC015
     FM201500 14009KT P6SM OVC040=

USA.gov is the U.S. government's official web portal to all federal, state and local government web resources and services.